createdAt,value
2023-05-06T00:01:39.642Z,14.43
2023-05-06T00:04:06.122Z,13.60
2023-05-06T00:06:32.702Z,12.55
2023-05-06T00:08:59.451Z,14.13
2023-05-06T00:11:26.738Z,11.30
2023-05-06T00:13:53.091Z,11.07
2023-05-06T00:16:19.434Z,12.48
2023-05-06T00:18:45.849Z,11.82
2023-05-06T00:21:12.176Z,11.30
2023-05-06T00:23:38.563Z,11.45
2023-05-06T00:26:05.188Z,14.10
2023-05-06T00:28:31.589Z,12.93
2023-05-06T00:30:57.914Z,12.98
2023-05-06T00:33:24.302Z,13.48
2023-05-06T00:35:52.153Z,12.32
2023-05-06T00:38:18.532Z,11.73
2023-05-06T00:40:45.352Z,13.40
2023-05-06T00:43:12.304Z,11.93
2023-05-06T00:45:38.751Z,12.40
2023-05-06T00:48:05.863Z,11.68
2023-05-06T00:50:33.092Z,12.97
2023-05-06T00:53:00.339Z,12.80
2023-05-06T00:55:27.416Z,14.73
2023-05-06T00:57:54.348Z,15.75
2023-05-06T01:00:21.049Z,11.27
2023-05-06T01:02:48.397Z,14.27
2023-05-06T01:05:17.290Z,12.75
2023-05-06T01:08:05.703Z,12.00
2023-05-06T01:10:36.742Z,12.27
2023-05-06T01:13:35.473Z,12.70
2023-05-06T01:16:02.216Z,11.70
2023-05-06T01:18:29.906Z,11.48
2023-05-06T01:20:56.616Z,13.95
2023-05-06T01:23:23.015Z,12.70
2023-05-06T01:25:49.384Z,11.23
2023-05-06T01:28:15.703Z,12.60
2023-05-06T01:30:53.136Z,10.80
2023-05-06T01:33:28.375Z,11.55
2023-05-06T01:36:07.049Z,11.40
2023-05-06T01:38:52.730Z,10.77
2023-05-06T01:41:19.983Z,11.53
2023-05-06T01:43:47.868Z,10.68
2023-05-06T01:46:18.491Z,12.68
2023-05-06T01:48:46.216Z,11.00
2023-05-06T01:51:12.757Z,13.48
2023-05-06T01:53:39.092Z,13.43
2023-05-06T01:56:05.815Z,13.38
2023-05-06T01:58:32.162Z,12.38
2023-05-06T02:00:58.632Z,12.50
2023-05-06T02:03:25.115Z,13.18
2023-05-06T02:05:51.503Z,13.80
2023-05-06T02:08:17.846Z,15.00
2023-05-06T02:10:44.187Z,13.52
2023-05-06T02:13:11.861Z,15.10
2023-05-06T02:15:38.232Z,13.75
2023-05-06T02:18:04.671Z,14.10
2023-05-06T02:20:31.054Z,14.10
2023-05-06T02:22:57.382Z,15.98
2023-05-06T02:25:23.709Z,14.07
2023-05-06T02:27:50.023Z,14.43
2023-05-06T02:30:16.386Z,15.17
2023-05-06T02:32:42.931Z,15.57
2023-05-06T02:35:09.812Z,16.42
2023-05-06T02:37:36.418Z,14.07
2023-05-06T02:40:02.753Z,14.98
2023-05-06T02:42:29.158Z,17.63
2023-05-06T02:44:55.555Z,18.25
2023-05-06T02:47:21.915Z,16.25
2023-05-06T02:49:48.298Z,14.95
2023-05-06T02:52:14.744Z,16.23
2023-05-06T02:54:41.080Z,15.40
2023-05-06T02:57:07.482Z,15.55
2023-05-06T02:59:35.030Z,15.80
2023-05-06T03:02:01.395Z,16.00
2023-05-06T03:04:27.796Z,15.80
2023-05-06T03:06:54.232Z,16.43
2023-05-06T03:09:20.562Z,15.68
2023-05-06T03:11:47.256Z,16.75
2023-05-06T03:14:13.604Z,18.35
2023-05-06T03:16:39.997Z,19.42
2023-05-06T03:19:06.369Z,20.90
2023-05-06T03:21:32.897Z,17.65
2023-05-06T03:23:59.462Z,18.83
2023-05-06T03:26:25.796Z,20.38
2023-05-06T03:28:52.125Z,20.67
2023-05-06T03:31:18.476Z,20.03
2023-05-06T03:33:44.839Z,22.83
2023-05-06T03:36:11.198Z,18.58
2023-05-06T03:38:38.545Z,19.50
2023-05-06T03:41:04.885Z,20.33
2023-05-06T03:43:31.220Z,19.37
2023-05-06T03:45:58.060Z,20.30
2023-05-06T03:48:24.422Z,20.67
2023-05-06T03:50:51.173Z,19.73
2023-05-06T03:53:17.547Z,20.58
2023-05-06T03:55:43.874Z,20.13
2023-05-06T03:58:10.935Z,18.55
2023-05-06T04:00:37.299Z,24.77
2023-05-06T04:03:03.738Z,20.25
2023-05-06T04:05:30.136Z,19.38
2023-05-06T04:07:56.468Z,21.23
2023-05-06T04:10:22.794Z,22.67
2023-05-06T04:12:49.137Z,22.65
2023-05-06T04:15:15.495Z,22.33
2023-05-06T04:17:41.845Z,24.08
2023-05-06T04:20:08.926Z,22.47
2023-05-06T04:22:35.286Z,24.80
2023-05-06T04:25:01.640Z,22.17
2023-05-06T04:27:27.977Z,23.50
2023-05-06T04:29:54.319Z,21.48
2023-05-06T04:32:20.634Z,20.23
2023-05-06T04:34:46.978Z,20.77
2023-05-06T04:37:13.290Z,22.20
2023-05-06T04:39:39.616Z,21.65
2023-05-06T04:42:06.067Z,23.40
2023-05-06T04:44:32.462Z,21.47
2023-05-06T04:46:58.789Z,21.92
2023-05-06T04:49:25.123Z,20.73
2023-05-06T04:51:51.462Z,25.10
2023-05-06T04:54:17.789Z,21.77
2023-05-06T04:56:44.116Z,23.97
2023-05-06T04:59:10.520Z,22.67
2023-05-06T05:01:36.885Z,21.88
2023-05-06T05:04:03.310Z,20.20
2023-05-06T05:06:29.637Z,21.35
2023-05-06T05:08:56.038Z,21.13
2023-05-06T05:11:22.609Z,21.55
2023-05-06T05:13:48.931Z,21.08
2023-05-06T05:16:15.341Z,20.27
2023-05-06T05:18:41.697Z,21.73
2023-05-06T05:21:08.050Z,24.07
2023-05-06T05:23:34.481Z,20.75
2023-05-06T05:26:01.334Z,22.15
2023-05-06T05:28:27.652Z,23.23
2023-05-06T05:30:54.009Z,22.35
2023-05-06T05:33:20.429Z,20.50
2023-05-06T05:35:46.863Z,21.77
2023-05-06T05:38:13.195Z,20.17
2023-05-06T05:40:39.549Z,21.80
2023-05-06T05:43:05.884Z,21.10
2023-05-06T05:45:32.214Z,19.23
2023-05-06T05:47:58.629Z,21.55
2023-05-06T05:50:24.971Z,20.70
2023-05-06T05:52:52.371Z,21.35
2023-05-06T05:55:18.751Z,20.38
2023-05-06T05:57:45.086Z,18.67
2023-05-06T06:00:13.471Z,20.20
2023-05-06T06:02:40.218Z,20.30
2023-05-06T06:05:07.229Z,17.92
2023-05-06T06:07:33.765Z,19.02
2023-05-06T06:10:00.161Z,18.90
2023-05-06T06:12:26.503Z,19.73
2023-05-06T06:14:52.863Z,17.40
2023-05-06T06:17:19.236Z,17.27
2023-05-06T06:19:46.255Z,16.90
2023-05-06T06:22:13.052Z,14.83
2023-05-06T06:24:39.406Z,17.60
2023-05-06T06:27:05.717Z,14.95
2023-05-06T06:29:32.070Z,14.98
2023-05-06T06:31:59.133Z,16.05
2023-05-06T06:34:25.537Z,12.90
2023-05-06T06:36:51.864Z,14.80
2023-05-06T06:39:18.199Z,16.02
2023-05-06T06:41:44.521Z,15.13
2023-05-06T06:44:10.888Z,15.10
2023-05-06T06:46:37.234Z,13.70
2023-05-06T06:49:03.572Z,14.25
2023-05-06T06:51:29.896Z,16.75
2023-05-06T06:53:56.229Z,15.80
2023-05-06T06:56:22.553Z,15.55
2023-05-06T06:58:49.573Z,14.87
2023-05-06T07:01:17.175Z,18.10
2023-05-06T07:03:43.558Z,16.77
2023-05-06T07:06:09.888Z,15.25
2023-05-06T07:08:36.235Z,16.55
2023-05-06T07:11:03.632Z,16.57
2023-05-06T07:13:29.977Z,18.33
2023-05-06T07:15:56.304Z,17.88
2023-05-06T07:18:22.668Z,19.02
2023-05-06T07:20:49.032Z,18.08
2023-05-06T07:23:15.375Z,17.33
2023-05-06T07:25:41.706Z,21.00
2023-05-06T07:28:08.087Z,18.25
2023-05-06T07:30:34.421Z,18.83
2023-05-06T07:33:00.833Z,18.48
2023-05-06T07:35:27.273Z,20.63
2023-05-06T07:37:53.631Z,20.27
2023-05-06T07:40:19.980Z,22.08
2023-05-06T07:42:46.352Z,22.15
2023-05-06T07:45:12.917Z,22.42
2023-05-06T07:47:39.538Z,24.20
2023-05-06T07:50:06.356Z,23.70
2023-05-06T07:52:32.737Z,28.15
2023-05-06T07:54:59.105Z,24.05
2023-05-06T07:57:25.527Z,24.23
2023-05-06T07:59:52.162Z,25.40
2023-05-06T08:02:18.764Z,25.60
2023-05-06T08:04:45.422Z,27.90
2023-05-06T08:07:11.859Z,29.20
2023-05-06T08:09:38.199Z,29.38
2023-05-06T08:12:04.696Z,27.50
2023-05-06T08:14:31.117Z,27.65
2023-05-06T08:16:57.456Z,23.50
2023-05-06T08:19:23.791Z,26.05
2023-05-06T08:21:50.123Z,25.90
2023-05-06T08:24:16.456Z,24.87
2023-05-06T08:26:42.805Z,23.75
2023-05-06T08:29:09.137Z,26.40
2023-05-06T08:31:36.560Z,26.60
2023-05-06T08:34:02.948Z,22.90
2023-05-06T08:36:29.290Z,24.97
2023-05-06T08:38:55.623Z,25.70
2023-05-06T08:41:22.127Z,27.48
2023-05-06T08:43:49.635Z,29.30
2023-05-06T08:46:16.914Z,29.98
2023-05-06T08:48:43.566Z,29.93
2023-05-06T08:51:13.683Z,32.47
2023-05-06T08:53:40.186Z,33.55
2023-05-06T08:56:10.547Z,34.00
2023-05-06T08:58:38.869Z,37.40
2023-05-06T09:01:05.487Z,33.30
2023-05-06T09:03:32.060Z,36.60
2023-05-06T09:05:58.572Z,33.10
2023-05-06T09:08:25.121Z,33.58
2023-05-06T09:10:51.517Z,34.03
2023-05-06T09:13:18.893Z,31.10
2023-05-06T09:15:47.298Z,33.53
2023-05-06T09:18:14.479Z,26.35
2023-05-06T09:20:42.417Z,28.17
2023-05-06T09:23:09.635Z,29.23
2023-05-06T09:25:36.925Z,29.07
2023-05-06T09:28:04.539Z,25.35
2023-05-06T09:30:30.886Z,27.25
2023-05-06T09:32:57.459Z,26.23
2023-05-06T09:35:28.140Z,23.27
2023-05-06T09:37:54.826Z,21.87
2023-05-06T09:40:25.236Z,27.10
2023-05-06T09:42:51.606Z,24.70
2023-05-06T09:45:18.014Z,20.80
2023-05-06T09:47:44.364Z,22.10
2023-05-06T09:50:13.448Z,20.50
2023-05-06T09:52:39.872Z,20.52
2023-05-06T09:55:06.573Z,20.35
2023-05-06T09:57:32.915Z,20.40
2023-05-06T10:00:00.108Z,22.58
2023-05-06T10:02:26.690Z,21.07
2023-05-06T10:04:54.737Z,20.10
2023-05-06T10:07:21.538Z,20.52
2023-05-06T10:09:49.060Z,20.15
2023-05-06T10:12:16.312Z,21.50
2023-05-06T10:14:42.642Z,16.57
2023-05-06T10:17:09.898Z,17.27
2023-05-06T10:19:40.027Z,18.67
2023-05-06T10:22:31.039Z,15.77
2023-05-06T10:25:05.007Z,15.93
2023-05-06T10:27:35.525Z,14.37
2023-05-06T10:30:02.991Z,14.75
2023-05-06T10:32:32.294Z,16.08
2023-05-06T10:35:05.692Z,15.27
2023-05-06T10:37:32.610Z,16.55
2023-05-06T10:39:59.677Z,15.80
2023-05-06T10:42:27.460Z,19.92
2023-05-06T10:45:01.644Z,14.70
2023-05-06T10:47:28.039Z,16.30
2023-05-06T10:50:18.942Z,15.45
2023-05-06T10:52:46.020Z,15.27
2023-05-06T10:55:31.532Z,17.70
2023-05-06T10:58:18.585Z,15.63
2023-05-06T11:00:53.710Z,15.55
2023-05-06T11:03:23.205Z,15.93
2023-05-06T11:05:51.014Z,14.47
2023-05-06T11:08:25.190Z,16.13
2023-05-06T11:10:52.669Z,21.00
2023-05-06T11:13:22.051Z,12.38
2023-05-06T11:15:49.412Z,14.48
2023-05-06T11:18:24.896Z,13.27
2023-05-06T11:20:51.948Z,11.90
2023-05-06T11:23:18.921Z,12.50
2023-05-06T11:25:45.259Z,10.52
2023-05-06T11:28:13.397Z,12.88
2023-05-06T11:30:44.160Z,13.10
2023-05-06T11:33:17.908Z,10.88
2023-05-06T11:35:44.603Z,11.63
2023-05-06T11:38:11.079Z,9.65
2023-05-06T11:40:37.475Z,10.63
2023-05-06T11:43:16.619Z,10.37
2023-05-06T11:45:46.395Z,9.93
2023-05-06T11:48:16.894Z,9.40
2023-05-06T11:50:48.492Z,14.02
2023-05-06T11:53:17.356Z,11.07
2023-05-06T11:55:44.449Z,10.30
2023-05-06T11:58:19.026Z,12.32
2023-05-06T12:00:51.229Z,11.38
2023-05-06T12:03:21.299Z,10.07
2023-05-06T12:05:49.044Z,11.00
2023-05-06T12:08:26.608Z,13.77
2023-05-06T12:10:59.853Z,14.02
2023-05-06T12:13:27.154Z,11.85
2023-05-06T12:15:54.719Z,9.40
2023-05-06T12:18:21.513Z,10.20
2023-05-06T12:20:47.833Z,9.50
2023-05-06T12:23:15.927Z,11.30
2023-05-06T12:25:43.389Z,10.95
2023-05-06T12:28:16.725Z,10.70
2023-05-06T12:30:43.666Z,11.95
2023-05-06T12:33:10.192Z,9.90
2023-05-06T12:35:37.055Z,12.30
2023-05-06T12:38:10.221Z,13.52
2023-05-06T12:40:36.631Z,13.75
2023-05-06T12:43:02.969Z,16.25
2023-05-06T12:45:29.423Z,15.03
2023-05-06T12:47:57.720Z,14.73
2023-05-06T12:50:40.495Z,13.73
2023-05-06T12:53:08.268Z,12.25
2023-05-06T12:55:37.842Z,12.27
2023-05-06T12:58:04.326Z,12.77
2023-05-06T13:00:30.651Z,13.57
2023-05-06T13:02:57.075Z,13.20
2023-05-06T13:05:23.461Z,13.57
2023-05-06T13:07:50.027Z,12.38
2023-05-06T13:10:16.357Z,12.50
2023-05-06T13:12:42.921Z,11.23
2023-05-06T13:15:09.678Z,10.35
2023-05-06T13:17:36.106Z,9.70
2023-05-06T13:20:04.451Z,9.68
2023-05-06T13:22:40.322Z,11.60
2023-05-06T13:25:13.592Z,10.60
2023-05-06T13:27:39.902Z,9.98
2023-05-06T13:30:06.761Z,10.65
2023-05-06T13:32:33.178Z,10.00
2023-05-06T13:34:59.589Z,7.60
2023-05-06T13:37:25.901Z,6.90
2023-05-06T13:39:53.275Z,6.82
2023-05-06T13:42:19.593Z,7.80
2023-05-06T13:44:45.922Z,7.85
2023-05-06T13:47:12.254Z,8.23
2023-05-06T13:49:38.594Z,8.20
2023-05-06T13:52:07.115Z,8.05
2023-05-06T13:54:34.434Z,8.18
2023-05-06T13:57:00.786Z,8.05
2023-05-06T13:59:27.136Z,7.03
2023-05-06T14:01:54.018Z,7.13
2023-05-06T14:04:20.376Z,9.55
2023-05-06T14:06:46.842Z,7.25
2023-05-06T14:09:13.162Z,8.18
2023-05-06T14:11:39.498Z,8.30
2023-05-06T14:14:05.833Z,5.60
2023-05-06T14:16:32.392Z,6.15
2023-05-06T14:18:59.136Z,8.23
2023-05-06T14:21:25.527Z,8.98
2023-05-06T14:23:51.846Z,8.97
2023-05-06T14:26:18.260Z,8.13
2023-05-06T14:28:44.599Z,8.65
2023-05-06T14:31:10.977Z,7.07
2023-05-06T14:33:37.977Z,9.57
2023-05-06T14:36:05.046Z,9.47
2023-05-06T14:38:31.394Z,8.07
2023-05-06T14:40:59.402Z,7.93
2023-05-06T14:43:25.962Z,7.50
2023-05-06T14:45:52.405Z,7.28
2023-05-06T14:48:18.773Z,10.47
2023-05-06T14:50:45.113Z,8.43
2023-05-06T14:53:11.516Z,8.25
2023-05-06T14:55:37.857Z,7.65
2023-05-06T14:58:04.172Z,7.93
2023-05-06T15:00:30.726Z,7.80
2023-05-06T15:02:57.062Z,11.38
2023-05-06T15:05:23.470Z,10.02
2023-05-06T15:07:49.841Z,8.45
2023-05-06T15:10:16.279Z,8.80
2023-05-06T15:12:42.627Z,8.77
2023-05-06T15:15:09.630Z,10.10
2023-05-06T15:17:37.294Z,10.05
2023-05-06T15:20:04.002Z,8.73
2023-05-06T15:22:30.415Z,12.27
2023-05-06T15:24:56.758Z,8.30
2023-05-06T15:27:23.088Z,7.85
2023-05-06T15:29:49.426Z,9.55
2023-05-06T15:32:15.824Z,8.10
2023-05-06T15:34:42.177Z,8.00
2023-05-06T15:37:08.507Z,8.63
2023-05-06T15:39:35.639Z,8.63
2023-05-06T15:42:02.277Z,11.80
2023-05-06T15:44:28.622Z,12.45
2023-05-06T15:46:55.024Z,10.00
2023-05-06T15:51:50.603Z,11.00
2023-05-06T15:54:16.933Z,11.15
2023-05-06T15:56:43.248Z,10.07
2023-05-06T15:59:09.583Z,11.00
2023-05-06T16:02:12.829Z,11.73
2023-05-06T16:04:23.602Z,10.60
2023-05-06T16:06:50.140Z,11.77
2023-05-06T16:09:16.495Z,12.65
2023-05-06T16:11:42.946Z,12.15
2023-05-06T16:14:09.259Z,11.00
2023-05-06T16:16:35.762Z,12.07
2023-05-06T16:19:02.287Z,13.38
2023-05-06T16:21:28.682Z,10.90
2023-05-06T16:23:55.022Z,10.82
2023-05-06T16:26:22.469Z,11.10
2023-05-06T16:28:48.799Z,11.25
2023-05-06T16:31:15.342Z,12.35
2023-05-06T16:33:41.769Z,13.77
2023-05-06T16:36:08.282Z,14.80
2023-05-06T16:38:34.612Z,14.97
2023-05-06T16:41:00.928Z,12.38
2023-05-06T16:43:27.642Z,14.23
2023-05-06T16:45:53.972Z,13.50
2023-05-06T16:48:20.357Z,14.43
2023-05-06T16:50:46.756Z,13.30
2023-05-06T16:53:13.146Z,14.25
2023-05-06T16:55:39.743Z,15.95
2023-05-06T16:58:06.122Z,14.48
2023-05-06T17:00:32.688Z,15.38
2023-05-06T17:02:59.241Z,17.17
2023-05-06T17:05:25.728Z,15.27
2023-05-06T17:07:52.588Z,17.33
2023-05-06T17:10:18.960Z,17.88
2023-05-06T17:12:45.334Z,18.15
2023-05-06T17:15:11.888Z,22.57
2023-05-06T17:17:39.470Z,21.63
2023-05-06T17:20:06.482Z,23.17
2023-05-06T17:22:32.887Z,21.70
2023-05-06T17:24:59.212Z,21.00
2023-05-06T17:27:25.578Z,24.10
2023-05-06T17:29:52.971Z,24.90
2023-05-06T17:32:19.376Z,24.90
2023-05-06T17:34:46.750Z,24.48
2023-05-06T17:37:13.102Z,26.08
2023-05-06T17:39:39.473Z,25.73
2023-05-06T17:42:06.066Z,23.02
2023-05-06T17:44:32.448Z,22.92
2023-05-06T17:46:58.884Z,24.95
2023-05-06T17:49:25.279Z,24.95
2023-05-06T17:51:51.689Z,22.20
2023-05-06T17:54:18.076Z,25.20
2023-05-06T17:56:44.403Z,24.23
2023-05-06T17:59:10.717Z,21.08
2023-05-06T18:01:37.137Z,24.67
2023-05-06T18:04:03.659Z,25.13
2023-05-06T18:06:30.206Z,26.10
2023-05-06T18:08:56.589Z,24.10
2023-05-06T18:11:24.067Z,24.98
2023-05-06T18:13:50.554Z,24.58
2023-05-06T18:16:16.943Z,25.90
2023-05-06T18:18:43.272Z,27.38
2023-05-06T18:21:09.610Z,23.88
2023-05-06T18:23:37.060Z,30.42
2023-05-06T18:26:06.286Z,23.45
2023-05-06T18:28:36.227Z,24.20
2023-05-06T18:31:02.570Z,21.63
2023-05-06T18:33:28.907Z,26.20
2023-05-06T18:35:55.246Z,26.73
2023-05-06T18:38:21.576Z,24.73
2023-05-06T18:40:47.947Z,25.80
2023-05-06T18:43:14.302Z,26.08
2023-05-06T18:45:41.051Z,26.38
2023-05-06T18:48:07.410Z,28.65
2023-05-06T18:50:35.413Z,30.45
2023-05-06T18:53:01.748Z,26.73
2023-05-06T18:55:28.252Z,28.17
2023-05-06T18:57:54.687Z,27.90
2023-05-06T19:00:21.633Z,27.17
2023-05-06T19:02:48.659Z,26.88
2023-05-06T19:05:15.472Z,27.13
2023-05-06T19:07:41.950Z,27.17
2023-05-06T19:10:08.766Z,28.10
2023-05-06T19:12:35.277Z,27.30
2023-05-06T19:15:02.691Z,25.92
2023-05-06T19:17:29.179Z,28.07
2023-05-06T19:19:55.652Z,27.60
2023-05-06T19:22:22.165Z,26.83
2023-05-06T19:24:48.578Z,29.33
2023-05-06T19:27:16.011Z,28.38
2023-05-06T19:29:42.401Z,31.57
2023-05-06T19:32:08.851Z,30.20
2023-05-06T19:34:35.268Z,27.60
2023-05-06T19:37:01.625Z,29.58
2023-05-06T19:39:28.022Z,29.05
2023-05-06T19:41:54.381Z,29.80
2023-05-06T19:44:21.194Z,25.02
2023-05-06T19:46:49.192Z,25.95
2023-05-06T19:49:16.612Z,27.92
2023-05-06T19:51:43.986Z,27.77
2023-05-06T19:54:10.406Z,25.87
2023-05-06T19:56:43.596Z,27.65
2023-05-06T19:59:10.942Z,26.60
2023-05-06T20:01:37.520Z,25.98
2023-05-06T20:04:03.995Z,26.50
2023-05-06T20:06:30.606Z,23.97
2023-05-06T20:08:56.911Z,24.50
2023-05-06T20:11:23.238Z,23.98
2023-05-06T20:13:49.575Z,23.92
2023-05-06T20:16:17.059Z,23.85
2023-05-06T20:18:43.421Z,24.87
2023-05-06T20:21:09.782Z,23.90
2023-05-06T20:23:36.189Z,23.85
2023-05-06T20:26:02.534Z,25.08
2023-05-06T20:28:28.914Z,23.45
2023-05-06T20:30:55.274Z,24.00
2023-05-06T20:33:21.606Z,20.20
2023-05-06T20:35:48.081Z,24.00
2023-05-06T20:38:15.501Z,23.55
2023-05-06T20:40:41.867Z,24.83
2023-05-06T20:43:08.201Z,25.13
2023-05-06T20:45:35.683Z,22.75
2023-05-06T20:48:02.341Z,23.80
2023-05-06T20:50:28.768Z,21.30
2023-05-06T20:52:56.194Z,20.38
2023-05-06T20:55:22.761Z,20.87
2023-05-06T20:57:49.177Z,21.90
2023-05-06T21:00:15.594Z,23.27
2023-05-06T21:02:43.108Z,24.60
2023-05-06T21:05:09.973Z,23.15
2023-05-06T21:07:36.501Z,26.67
2023-05-06T21:10:03.840Z,25.95
2023-05-06T21:12:30.182Z,27.27
2023-05-06T21:14:58.359Z,25.00
2023-05-06T21:17:24.947Z,28.08
2023-05-06T21:19:51.411Z,29.33
2023-05-06T21:22:17.754Z,29.15
2023-05-06T21:24:44.097Z,26.73
2023-05-06T21:27:10.545Z,25.98
2023-05-06T21:29:36.869Z,24.77
2023-05-06T21:32:03.208Z,28.60
2023-05-06T21:34:29.589Z,30.77
2023-05-06T21:36:56.957Z,26.48
2023-05-06T21:39:23.437Z,30.80
2023-05-06T21:41:50.860Z,26.98
2023-05-06T21:44:17.173Z,28.57
2023-05-06T21:46:43.588Z,26.98
2023-05-06T21:49:09.948Z,28.92
2023-05-06T21:51:36.279Z,25.73
2023-05-06T21:54:02.877Z,26.88
2023-05-06T21:56:30.281Z,25.33
2023-05-06T21:58:56.611Z,28.83
2023-05-06T22:01:23.567Z,26.83
2023-05-06T22:03:50.116Z,24.65
2023-05-06T22:06:16.567Z,26.67
2023-05-06T22:08:42.944Z,26.60
2023-05-06T22:11:09.314Z,23.15
2023-05-06T22:13:35.669Z,24.85
2023-05-06T22:16:02.064Z,24.23
2023-05-06T22:18:28.768Z,26.02
2023-05-06T22:20:56.154Z,24.97
2023-05-06T22:23:23.574Z,23.38
2023-05-06T22:25:50.484Z,24.45
2023-05-06T22:28:16.806Z,22.08
2023-05-06T22:30:43.134Z,23.33
2023-05-06T22:33:09.492Z,22.77
2023-05-06T22:35:35.895Z,25.85
2023-05-06T22:38:02.219Z,23.83
2023-05-06T22:40:28.586Z,26.23
2023-05-06T22:42:55.504Z,22.40
2023-05-06T22:45:21.832Z,23.23
2023-05-06T22:47:48.173Z,21.95
2023-05-06T22:50:14.539Z,20.85
2023-05-06T22:52:40.905Z,23.48
2023-05-06T22:55:07.829Z,21.85
2023-05-06T22:57:34.301Z,21.33
2023-05-06T23:00:01.820Z,20.02
2023-05-06T23:02:28.184Z,19.55
2023-05-06T23:04:54.528Z,22.88
2023-05-06T23:07:20.869Z,23.15
2023-05-06T23:09:47.201Z,18.73
2023-05-06T23:12:14.591Z,19.88
2023-05-06T23:14:41.334Z,21.63
2023-05-06T23:17:07.819Z,17.95
2023-05-06T23:19:34.452Z,19.85
2023-05-06T23:22:00.842Z,20.90
2023-05-06T23:24:27.172Z,19.95
2023-05-06T23:26:53.501Z,19.52
2023-05-06T23:29:19.912Z,20.25
2023-05-06T23:31:46.242Z,18.45
2023-05-06T23:34:12.564Z,18.17
2023-05-06T23:36:39.951Z,20.10
2023-05-06T23:39:06.272Z,19.50
2023-05-06T23:41:32.637Z,18.98
2023-05-06T23:43:58.986Z,19.17
2023-05-06T23:46:25.485Z,17.43
2023-05-06T23:48:51.882Z,18.50
2023-05-06T23:51:18.250Z,18.15
2023-05-06T23:53:44.892Z,16.25
2023-05-06T23:56:11.245Z,18.45
2023-05-06T23:58:37.553Z,19.17
